createdAt,value
2023-02-03T00:03:57.525Z,7.00
2023-02-03T00:09:01.865Z,5.90
2023-02-03T00:14:05.600Z,3.20
2023-02-03T00:19:08.391Z,4.70
2023-02-03T00:24:11.505Z,4.40
2023-02-03T00:29:14.915Z,6.30
2023-02-03T00:34:18.255Z,6.90
2023-02-03T00:39:21.536Z,5.50
2023-02-03T00:44:24.348Z,5.90
2023-02-03T00:49:27.859Z,5.50
2023-02-03T00:54:32.628Z,7.30
2023-02-03T00:59:36.403Z,7.10
2023-02-03T01:04:39.135Z,5.90
2023-02-03T01:09:42.138Z,4.30
2023-02-03T01:14:44.939Z,3.70
2023-02-03T01:19:47.696Z,3.40
2023-02-03T01:24:50.722Z,4.80
2023-02-03T01:29:53.543Z,2.10
2023-02-03T01:34:56.839Z,5.00
2023-02-03T01:39:59.670Z,5.00
2023-02-03T01:45:02.576Z,5.50
2023-02-03T01:50:19.095Z,5.90
2023-02-03T01:55:28.443Z,5.60
2023-02-03T02:00:31.267Z,2.50
2023-02-03T02:05:48.349Z,4.00
2023-02-03T02:10:51.712Z,4.20
2023-02-03T02:16:08.982Z,5.20
2023-02-03T02:21:36.209Z,4.20
2023-02-03T02:26:54.986Z,9.70
2023-02-03T02:32:06.320Z,3.70
2023-02-03T02:37:30.801Z,5.10
2023-02-03T02:42:51.829Z,7.20
2023-02-03T02:48:10.808Z,5.40
2023-02-03T02:53:15.655Z,7.20
2023-02-03T02:58:20.718Z,6.40
2023-02-03T03:03:24.419Z,7.10
2023-02-03T03:08:33.306Z,5.50
2023-02-03T03:13:42.425Z,7.20
2023-02-03T03:18:56.714Z,8.90
2023-02-03T03:24:03.796Z,7.50
2023-02-03T03:29:12.318Z,5.90
2023-02-03T03:34:17.800Z,4.40
2023-02-03T03:39:49.954Z,5.10
2023-02-03T03:45:11.069Z,9.40
2023-02-03T03:50:22.013Z,7.10
2023-02-03T03:55:27.724Z,6.90
2023-02-03T04:00:34.520Z,6.40
2023-02-03T04:05:39.428Z,5.40
2023-02-03T04:10:43.170Z,6.60
2023-02-03T04:15:46.016Z,7.90
2023-02-03T04:20:48.961Z,3.00
2023-02-03T04:25:51.767Z,9.00
2023-02-03T04:30:55.095Z,5.50
2023-02-03T04:35:57.859Z,6.40
2023-02-03T04:41:00.641Z,11.60
2023-02-03T04:46:03.584Z,9.30
2023-02-03T04:51:08.328Z,7.30
2023-02-03T04:56:11.256Z,7.10
2023-02-03T05:01:14.086Z,4.30
2023-02-03T05:06:16.938Z,17.20
2023-02-03T05:11:19.741Z,12.00
2023-02-03T05:16:22.842Z,11.60
2023-02-03T05:21:25.862Z,7.90
2023-02-03T05:26:28.897Z,13.10
2023-02-03T05:31:33.771Z,4.60
2023-02-03T05:36:36.623Z,16.70
2023-02-03T05:41:57.253Z,12.60
2023-02-03T05:47:01.143Z,13.80
2023-02-03T05:52:05.474Z,18.30
2023-02-03T05:57:08.298Z,17.50
2023-02-03T06:02:11.103Z,16.80
2023-02-03T06:07:13.903Z,12.00
2023-02-03T06:12:16.704Z,16.80
2023-02-03T06:17:19.443Z,15.60
2023-02-03T06:22:22.335Z,17.20
2023-02-03T06:27:25.093Z,19.20
2023-02-03T06:32:28.439Z,16.50
2023-02-03T06:37:31.237Z,14.20
2023-02-03T06:42:34.638Z,12.80
2023-02-03T06:47:41.460Z,16.30
2023-02-03T06:52:44.745Z,16.00
2023-02-03T06:57:48.708Z,16.40
2023-02-03T07:02:56.675Z,15.20
2023-02-03T07:07:59.916Z,16.50
2023-02-03T07:13:05.193Z,15.20
2023-02-03T07:18:08.001Z,11.40
2023-02-03T07:23:10.870Z,19.30
2023-02-03T07:28:13.827Z,14.00
2023-02-03T07:33:16.784Z,15.40
2023-02-03T07:38:19.570Z,20.10
2023-02-03T07:43:23.391Z,18.50
2023-02-03T07:48:26.216Z,16.10
2023-02-03T07:53:28.992Z,18.60
2023-02-03T07:58:32.839Z,19.00
2023-02-03T08:03:35.739Z,19.50
2023-02-03T08:08:38.533Z,13.30
2023-02-03T08:13:41.402Z,14.90
2023-02-03T08:18:44.203Z,18.50
2023-02-03T08:23:47.049Z,13.10
2023-02-03T08:28:50.491Z,12.10
2023-02-03T08:39:13.679Z,15.40
2023-02-03T08:44:18.839Z,17.10
2023-02-03T08:49:21.746Z,18.70
2023-02-03T08:54:26.337Z,12.50
2023-02-03T08:59:30.417Z,13.60
2023-02-03T09:04:34.165Z,7.20
2023-02-03T09:09:37.475Z,11.50
2023-02-03T09:14:40.563Z,10.00
2023-02-03T09:19:43.609Z,11.40
2023-02-03T09:24:46.574Z,12.80
2023-02-03T09:29:49.884Z,12.10
2023-02-03T09:34:52.736Z,10.80
2023-02-03T09:39:58.261Z,10.10
2023-02-03T09:45:30.008Z,13.30
2023-02-03T09:50:37.471Z,14.90
2023-02-03T09:55:44.063Z,17.80
2023-02-03T10:00:58.312Z,23.80
2023-02-03T10:06:28.255Z,26.70
2023-02-03T10:11:33.918Z,22.90
2023-02-03T10:17:04.608Z,20.80
2023-02-03T10:22:15.361Z,17.70
2023-02-03T10:27:24.614Z,23.30
2023-02-03T10:32:28.336Z,22.40
2023-02-03T10:37:37.686Z,16.50
2023-02-03T10:42:59.840Z,21.60
2023-02-03T10:48:04.851Z,19.10
2023-02-03T10:53:19.776Z,21.20
2023-02-03T10:58:28.851Z,14.50
2023-02-03T11:03:31.935Z,16.40
2023-02-03T11:08:39.730Z,18.60
2023-02-03T11:13:42.662Z,12.40
2023-02-03T11:18:52.492Z,16.50
2023-02-03T11:29:37.460Z,15.60
2023-02-03T11:34:46.408Z,16.40
2023-02-03T11:39:49.401Z,17.20
2023-02-03T11:45:13.197Z,17.50
2023-02-03T11:50:33.101Z,19.30
2023-02-03T11:55:53.532Z,14.90
2023-02-03T12:01:34.307Z,16.60
2023-02-03T12:07:01.752Z,22.30
2023-02-03T12:12:37.462Z,15.40
2023-02-03T12:17:59.203Z,12.20
2023-02-03T12:23:07.943Z,13.80
2023-02-03T12:28:48.946Z,13.40
2023-02-03T12:33:58.298Z,17.00
2023-02-03T12:39:11.234Z,14.90
2023-02-03T12:44:23.253Z,12.60
2023-02-03T12:49:42.575Z,11.00
2023-02-03T12:55:03.567Z,15.70
2023-02-03T13:00:27.286Z,12.20
2023-02-03T13:05:56.587Z,13.60
2023-02-03T13:11:46.999Z,9.40
2023-02-03T13:16:59.001Z,9.90
2023-02-03T13:22:02.135Z,17.00
2023-02-03T13:27:26.509Z,11.60
2023-02-03T13:32:58.836Z,11.10
2023-02-03T13:38:20.476Z,9.50
2023-02-03T13:43:38.617Z,8.10
2023-02-03T13:48:45.845Z,12.70
2023-02-03T13:53:51.102Z,7.10
2023-02-03T13:59:16.126Z,5.90
2023-02-03T14:04:22.153Z,10.40
2023-02-03T14:09:31.055Z,7.00
2023-02-03T14:14:33.845Z,8.00
2023-02-03T14:19:52.142Z,10.90
2023-02-03T14:24:58.187Z,13.70
2023-02-03T14:30:14.818Z,7.30
2023-02-03T14:35:21.207Z,7.50
2023-02-03T14:40:52.266Z,8.80
2023-02-03T14:46:10.468Z,8.80
2023-02-03T14:51:43.124Z,11.30
2023-02-03T14:57:24.738Z,9.70
2023-02-03T15:02:31.326Z,7.50
2023-02-03T15:07:45.502Z,8.10
2023-02-03T15:12:56.079Z,7.50
2023-02-03T15:18:19.272Z,7.60
2023-02-03T15:23:25.261Z,7.60
2023-02-03T15:28:29.700Z,10.20
2023-02-03T15:33:36.060Z,10.70
2023-02-03T15:38:44.120Z,5.80
2023-02-03T15:43:50.700Z,9.20
2023-02-03T15:49:02.192Z,6.90
2023-02-03T15:54:13.742Z,6.40
2023-02-03T15:59:23.044Z,4.30
2023-02-03T16:04:26.457Z,9.20
2023-02-03T16:09:33.607Z,8.40
2023-02-03T16:14:37.297Z,7.80
2023-02-03T16:19:41.934Z,8.50
2023-02-03T16:24:46.308Z,8.30
2023-02-03T16:30:08.020Z,6.80
2023-02-03T16:35:29.982Z,9.80
2023-02-03T16:40:51.985Z,9.70
2023-02-03T16:46:15.679Z,5.90
2023-02-03T16:51:18.711Z,4.40
2023-02-03T16:56:21.634Z,12.90
2023-02-03T17:01:24.516Z,10.90
2023-02-03T17:06:28.033Z,9.00
2023-02-03T17:11:31.045Z,7.80
2023-02-03T17:16:34.020Z,5.20
2023-02-03T17:21:37.571Z,5.30
2023-02-03T17:26:40.779Z,3.90
2023-02-03T17:31:43.763Z,6.40
2023-02-03T17:36:46.687Z,8.30
2023-02-03T17:57:51.443Z,6.10
2023-02-03T18:02:54.339Z,6.50
2023-02-03T18:07:59.147Z,9.10
2023-02-03T18:13:06.387Z,10.90
2023-02-03T18:18:09.290Z,11.40
2023-02-03T18:23:12.594Z,9.30
2023-02-03T18:28:16.213Z,11.40
2023-02-03T18:33:19.106Z,8.80
2023-02-03T18:38:22.015Z,7.80
2023-02-03T18:43:24.933Z,7.60
2023-02-03T18:48:27.840Z,5.90
2023-02-03T18:53:32.695Z,5.30
2023-02-03T18:58:37.898Z,10.30
2023-02-03T19:03:40.852Z,8.80
2023-02-03T19:08:43.755Z,9.00
2023-02-03T19:13:46.665Z,8.20
2023-02-03T19:18:49.573Z,7.90
2023-02-03T19:23:53.202Z,6.20
2023-02-03T19:28:57.033Z,9.20
2023-02-03T19:34:00.132Z,8.00
2023-02-03T19:39:03.237Z,5.60
2023-02-03T19:44:07.199Z,8.70
2023-02-03T19:49:13.222Z,11.70
2023-02-03T19:54:16.872Z,12.70
2023-02-03T19:59:19.773Z,12.10
2023-02-03T20:04:22.777Z,12.20
2023-02-03T20:09:25.785Z,12.90
2023-02-03T20:14:28.792Z,14.50
2023-02-03T20:19:31.897Z,10.30
2023-02-03T20:24:35.109Z,9.90
2023-02-03T20:29:38.115Z,8.40
2023-02-03T20:34:41.019Z,9.10
2023-02-03T20:39:43.927Z,7.30
2023-02-03T20:44:46.829Z,9.80
2023-02-03T20:49:49.826Z,12.70
2023-02-03T20:54:52.633Z,13.80
2023-02-03T20:59:55.547Z,9.40
2023-02-03T21:05:00.449Z,8.70
2023-02-03T21:10:17.334Z,7.10
2023-02-03T21:15:26.791Z,11.10
2023-02-03T21:20:31.755Z,4.90
2023-02-03T21:25:34.848Z,10.20
2023-02-03T21:30:38.184Z,8.70
2023-02-03T21:35:41.173Z,11.50
2023-02-03T21:40:44.087Z,12.50
2023-02-03T21:45:47.113Z,13.90
2023-02-03T21:50:50.555Z,7.10
2023-02-03T21:55:54.383Z,9.20
2023-02-03T22:01:00.261Z,10.50
2023-02-03T22:06:09.136Z,7.70
2023-02-03T22:11:13.397Z,7.30
2023-02-03T22:16:17.540Z,8.00
2023-02-03T22:21:20.979Z,5.20
2023-02-03T22:26:24.036Z,9.80
2023-02-03T22:31:27.084Z,9.00
2023-02-03T22:36:30.554Z,10.70
2023-02-03T22:41:33.353Z,10.80
2023-02-03T22:46:36.160Z,11.90
2023-02-03T22:51:40.284Z,5.10
2023-02-03T22:56:43.084Z,6.20
2023-02-03T23:01:45.888Z,10.80
2023-02-03T23:06:48.791Z,10.40
2023-02-03T23:11:51.694Z,10.80
2023-02-03T23:16:54.598Z,11.00
2023-02-03T23:21:59.450Z,8.60
2023-02-03T23:27:02.641Z,12.60
2023-02-03T23:32:06.286Z,13.80
2023-02-03T23:37:09.086Z,12.90
2023-02-03T23:42:12.095Z,12.50
2023-02-03T23:47:15.300Z,5.80
2023-02-03T23:52:18.211Z,12.60
2023-02-03T23:57:21.308Z,11.30
